This is the latest recevied weather packets stored in our database for station/object W5LND-10. If no packets are shown the sender has not sent any weather packets the latest 1 day(s).
| Time | Temp. | Humidity | Pressure | Rain* | Wind** | Luminosity | Snow |
|---|---|---|---|---|---|---|---|
| 1778118666 | 20.56° C | 44% | 1010.3 hPa | 0 mm | - | 0 W/m² | - |
| 1778118366 | 20.56° C | 43% | 1010.3 hPa | 0 mm | - | 0 W/m² | - |
| 1778118066 | 20.56° C | 43% | 1010.2 hPa | 0 mm | - | 0 W/m² | - |
| 1778117766 | 20.56° C | 43% | 1010.2 hPa | 0 mm | - | 7 W/m² | - |
| 1778117466 | 21.11° C | 42% | 1010.1 hPa | 0 mm | - | 9 W/m² | - |
| 1778117166 | 21.11° C | 42% | 1010 hPa | 0 mm | - | 11 W/m² | - |
| 1778116866 | 21.11° C | 42% | 1009.7 hPa | 0 mm | - | 16 W/m² | - |
| 1778116566 | 21.11° C | 42% | 1009.7 hPa | 0 mm | - | 23 W/m² | - |
| 1778116266 | 21.67° C | 41% | 1009.6 hPa | 0 mm | - | 32 W/m² | - |
| 1778115966 | 21.67° C | 41% | 1009.5 hPa | 0 mm | - | 42 W/m² | - |
| 1778115666 | 21.67° C | 41% | 1009.3 hPa | 0 mm | - | 49 W/m² | - |
| 1778115366 | 21.67° C | 41% | 1009.4 hPa | 0 mm | - | 54 W/m² | - |
| 1778115066 | 22.22° C | 41% | 1009.4 hPa | 0 mm | - | 58 W/m² | - |
| 1778114766 | 22.22° C | 41% | 1009.3 hPa | 0 mm | - | 62 W/m² | - |
| 1778114466 | 22.22° C | 40% | 1009.4 hPa | 0 mm | - | 62 W/m² | - |
| 1778114166 | 22.78° C | 41% | 1009.4 hPa | 0 mm | - | 69 W/m² | - |
| 1778113866 | 22.78° C | 40% | 1009.4 hPa | 0 mm | - | 79 W/m² | - |
| 1778113566 | 22.78° C | 40% | 1009.4 hPa | 0 mm | - | 95 W/m² | - |
| 1778113266 | 22.78° C | 40% | 1009.4 hPa | 0 mm | - | 118 W/m² | - |
| 1778112666 | 23.33° C | 40% | 1009.3 hPa | 0 mm | - | 149 W/m² | - |
| 1778100067 | 23.33° C | 40% | 1009.8 hPa | 0 mm | - | 807 W/m² | - |
| 1778099767 | 23.33° C | 40% | 1009.8 hPa | 0 mm | - | 867 W/m² | - |
| 1778099467 | 23.33° C | 42% | 1009.8 hPa | 0 mm | - | 993 W/m² | - |
| 1778098867 | 22.78° C | 42% | 1009.9 hPa | 0 mm | - | 863 W/m² | - |
| 1778098567 | 22.78° C | 42% | 1009.8 hPa | 0 mm | - | 1046 W/m² | - |
* Rain latest hour (hover to see other rain measurements)
** Current wind speed in m/s (hover to see current wind gust speed)